createdAt,value
2018-12-05T00:00:09.608Z,72.50
2018-12-05T00:01:10.573Z,72.50
2018-12-05T00:02:11.762Z,72.40
2018-12-05T00:03:12.835Z,72.50
2018-12-05T00:04:13.808Z,72.60
2018-12-05T00:05:14.759Z,72.60
2018-12-05T00:06:15.722Z,72.60
2018-12-05T00:07:16.800Z,72.50
2018-12-05T00:08:17.765Z,72.50
2018-12-05T00:09:18.772Z,72.40
2018-12-05T00:10:19.752Z,72.50
2018-12-05T00:11:20.720Z,72.30
2018-12-05T00:12:21.686Z,72.30
2018-12-05T00:13:22.651Z,72.30
2018-12-05T00:14:30.741Z,72.50
2018-12-05T00:15:31.809Z,71.80
2018-12-05T00:16:32.822Z,72.30
2018-12-05T00:17:33.885Z,72.40
2018-12-05T00:18:35.063Z,72.30
2018-12-05T00:19:36.487Z,72.30
2018-12-05T00:20:37.605Z,72.50
2018-12-05T00:21:38.559Z,72.50
2018-12-05T00:22:39.590Z,72.40
2018-12-05T00:23:40.672Z,72.90
2018-12-05T00:24:41.686Z,71.80
2018-12-05T00:25:42.639Z,71.80
2018-12-05T00:26:43.712Z,71.80
2018-12-05T00:27:44.661Z,71.80
2018-12-05T00:28:45.638Z,71.80
2018-12-05T00:29:46.650Z,72.80
2018-12-05T00:30:47.608Z,71.80
2018-12-05T00:31:48.683Z,71.80
2018-12-05T00:32:49.648Z,71.80
2018-12-05T00:33:50.621Z,71.90
2018-12-05T00:34:51.597Z,71.70
2018-12-05T00:35:52.667Z,71.70
2018-12-05T00:36:53.843Z,72.50
2018-12-05T00:37:54.797Z,71.70
2018-12-05T00:38:55.759Z,71.80
2018-12-05T00:39:56.731Z,71.80
2018-12-05T00:40:57.698Z,72.50
2018-12-05T00:41:58.775Z,72.30
2018-12-05T00:43:06.850Z,72.50
2018-12-05T00:44:07.858Z,72.60
2018-12-05T00:45:09.015Z,72.70
2018-12-05T00:46:10.195Z,72.50
2018-12-05T00:47:11.169Z,72.40
2018-12-05T00:48:12.131Z,72.50
2018-12-05T00:49:13.205Z,72.40
2018-12-05T00:50:14.383Z,72.30
2018-12-05T00:51:15.352Z,72.30
2018-12-05T00:52:16.324Z,72.30
2018-12-05T00:53:17.287Z,72.30
2018-12-05T00:54:18.257Z,72.50
2018-12-05T00:55:19.329Z,72.40
2018-12-05T00:56:20.392Z,72.30
2018-12-05T00:57:21.379Z,72.40
2018-12-05T00:58:22.356Z,72.40
2018-12-05T00:59:23.371Z,72.20
2018-12-05T01:00:24.443Z,72.20
2018-12-05T01:01:25.458Z,71.90
2018-12-05T01:02:26.416Z,72.20
2018-12-05T01:03:27.488Z,72.40
2018-12-05T01:04:28.671Z,72.20
2018-12-05T01:05:29.739Z,72.10
2018-12-05T01:06:30.979Z,72.90
2018-12-05T01:07:32.067Z,72.80
2018-12-05T01:08:33.141Z,73.00
2018-12-05T01:09:36.123Z,72.70
2018-12-05T01:10:37.191Z,72.70
2018-12-05T01:11:38.913Z,72.50
2018-12-05T01:12:39.991Z,72.50
2018-12-05T01:13:40.962Z,72.70
2018-12-05T01:14:41.979Z,72.70
2018-12-05T01:15:42.936Z,72.60
2018-12-05T01:16:43.915Z,72.50
2018-12-05T01:17:44.885Z,72.50
2018-12-05T01:18:45.948Z,72.50
2018-12-05T01:19:46.947Z,73.00
2018-12-05T01:20:48.016Z,72.90
2018-12-05T01:21:49.082Z,72.70
2018-12-05T01:22:50.039Z,72.90
2018-12-05T01:23:51.188Z,73.10
2018-12-05T01:24:52.360Z,72.90
2018-12-05T01:25:53.424Z,72.80
2018-12-05T01:26:54.422Z,72.50
2018-12-05T01:27:55.384Z,72.50
2018-12-05T01:28:56.331Z,72.70
2018-12-05T01:29:57.311Z,72.60
2018-12-05T01:31:05.345Z,72.30
2018-12-05T01:32:06.316Z,72.20
2018-12-05T01:33:07.272Z,72.20
2018-12-05T01:34:08.455Z,72.40
2018-12-05T01:35:09.532Z,72.30
2018-12-05T01:36:10.505Z,72.40
2018-12-05T01:37:11.480Z,72.20
2018-12-05T01:38:12.457Z,72.20
2018-12-05T01:39:13.435Z,72.20
2018-12-05T01:40:14.517Z,72.20
2018-12-05T01:41:15.583Z,72.50
2018-12-05T01:42:16.681Z,72.40
2018-12-05T01:43:17.772Z,72.50
2018-12-05T01:44:18.837Z,72.30
2018-12-05T01:45:20.012Z,72.20
2018-12-05T01:46:21.076Z,72.20
2018-12-05T01:47:22.125Z,72.20
2018-12-05T01:48:23.181Z,72.40
2018-12-05T01:49:24.135Z,72.50
2018-12-05T01:50:25.309Z,72.90
2018-12-05T01:51:26.370Z,73.00
2018-12-05T01:52:27.431Z,73.10
2018-12-05T01:53:28.375Z,72.90
2018-12-05T01:54:29.328Z,72.90
2018-12-05T01:55:32.515Z,72.90
2018-12-05T01:56:33.676Z,72.70
2018-12-05T01:57:34.641Z,72.90
2018-12-05T01:58:35.596Z,72.90
2018-12-05T01:59:36.642Z,72.90
2018-12-05T02:00:37.736Z,73.00
2018-12-05T02:01:38.800Z,73.20
2018-12-05T02:02:40.042Z,73.30
2018-12-05T02:03:41.196Z,73.40
2018-12-05T02:04:42.164Z,73.60
2018-12-05T02:05:43.176Z,73.20
2018-12-05T02:06:44.291Z,73.00
2018-12-05T02:07:45.355Z,73.20
2018-12-05T02:08:46.534Z,73.20
2018-12-05T02:09:47.771Z,73.30
2018-12-05T02:10:48.847Z,74.40
2018-12-05T02:11:49.922Z,73.90
2018-12-05T02:12:50.885Z,73.90
2018-12-05T02:13:51.844Z,73.50
2018-12-05T02:14:52.808Z,73.30
2018-12-05T02:15:53.877Z,73.20
2018-12-05T02:16:54.843Z,73.30
2018-12-05T02:17:55.795Z,73.60
2018-12-05T02:18:56.748Z,73.30
2018-12-05T02:19:57.746Z,73.30
2018-12-05T02:20:58.825Z,73.40
2018-12-05T02:21:59.792Z,73.50
2018-12-05T02:23:00.748Z,73.50
2018-12-05T02:24:01.819Z,73.50
2018-12-05T02:25:03.583Z,74.00
2018-12-05T02:26:04.659Z,73.70
2018-12-05T02:27:05.727Z,73.70
2018-12-05T02:28:06.684Z,73.50
2018-12-05T02:29:07.632Z,73.40
2018-12-05T02:30:08.809Z,73.20
2018-12-05T02:31:09.969Z,73.30
2018-12-05T02:32:11.031Z,73.20
2018-12-05T02:33:12.093Z,73.30
2018-12-05T02:34:13.048Z,73.20
2018-12-05T02:35:14.124Z,73.70
2018-12-05T02:36:15.197Z,73.70
2018-12-05T02:37:16.358Z,73.60
2018-12-05T02:38:17.320Z,73.00
2018-12-05T02:39:18.395Z,72.90
2018-12-05T02:40:19.364Z,72.90
2018-12-05T02:41:27.440Z,72.70
2018-12-05T02:42:28.397Z,72.70
2018-12-05T02:43:29.373Z,72.60
2018-12-05T02:44:30.356Z,72.80
2018-12-05T02:45:31.540Z,72.60
2018-12-05T02:46:32.496Z,72.50
2018-12-05T02:47:33.460Z,72.30
2018-12-05T02:48:34.527Z,72.30
2018-12-05T02:49:35.489Z,72.40
2018-12-05T02:50:36.576Z,72.60
2018-12-05T02:51:37.532Z,72.40
2018-12-05T02:52:38.581Z,72.30
2018-12-05T02:53:39.527Z,72.30
2018-12-05T02:54:40.501Z,72.20
2018-12-05T02:55:41.543Z,72.20
2018-12-05T02:56:42.603Z,72.20
2018-12-05T02:57:43.664Z,72.20
2018-12-05T02:58:44.604Z,72.30
2018-12-05T02:59:45.568Z,72.40
2018-12-05T03:00:46.541Z,72.40
2018-12-05T03:01:47.671Z,72.20
2018-12-05T03:02:48.636Z,72.20
2018-12-05T03:03:49.716Z,72.20
2018-12-05T03:04:57.888Z,72.20
2018-12-05T03:05:58.956Z,72.00
2018-12-05T03:07:00.132Z,71.50
2018-12-05T03:08:01.088Z,72.10
2018-12-05T03:09:05.848Z,72.10
2018-12-05T03:10:13.763Z,72.20
2018-12-05T03:11:14.836Z,72.10
2018-12-05T03:12:15.912Z,72.20
2018-12-05T03:13:16.865Z,72.10
2018-12-05T03:14:17.827Z,72.30
2018-12-05T03:15:18.820Z,72.40
2018-12-05T03:16:19.793Z,72.50
2018-12-05T03:17:20.814Z,72.30
2018-12-05T03:18:21.787Z,72.30
2018-12-05T03:19:22.862Z,72.20
2018-12-05T03:20:23.825Z,72.30
2018-12-05T03:21:24.893Z,72.20
2018-12-05T03:22:25.963Z,72.10
2018-12-05T03:23:26.935Z,72.30
2018-12-05T03:24:27.884Z,72.70
2018-12-05T03:25:29.041Z,72.30
2018-12-05T03:26:30.208Z,72.40
2018-12-05T03:27:31.271Z,72.50
2018-12-05T03:28:32.236Z,72.50
2018-12-05T03:29:33.196Z,72.70
2018-12-05T03:30:34.260Z,72.80
2018-12-05T03:31:35.340Z,72.90
2018-12-05T03:32:36.293Z,73.20
2018-12-05T03:33:37.356Z,74.00
2018-12-05T03:34:38.311Z,74.10
2018-12-05T03:35:39.468Z,73.20
2018-12-05T03:36:40.421Z,73.10
2018-12-05T03:37:41.475Z,73.20
2018-12-05T03:38:42.433Z,73.10
2018-12-05T03:39:43.392Z,73.00
2018-12-05T03:40:44.343Z,73.00
2018-12-05T03:41:45.405Z,73.20
2018-12-05T03:42:46.570Z,73.10
2018-12-05T03:43:47.527Z,72.90
2018-12-05T03:44:48.496Z,73.20
2018-12-05T03:45:49.479Z,73.00
2018-12-05T03:46:50.639Z,73.40
2018-12-05T03:47:51.837Z,73.20
2018-12-05T03:48:52.802Z,73.20
2018-12-05T03:50:01.655Z,73.10
2018-12-05T03:51:02.727Z,72.90
2018-12-05T03:52:03.792Z,72.80
2018-12-05T03:53:04.860Z,72.90
2018-12-05T03:54:06.151Z,73.30
2018-12-05T03:55:07.224Z,73.20
2018-12-05T03:56:08.293Z,73.40
2018-12-05T03:57:09.344Z,73.40
2018-12-05T03:58:10.287Z,73.60
2018-12-05T03:59:11.255Z,74.00
2018-12-05T04:00:12.508Z,73.90
2018-12-05T04:01:13.476Z,74.50
2018-12-05T04:02:14.427Z,73.90
2018-12-05T04:03:15.384Z,73.80
2018-12-05T04:04:16.439Z,73.40
2018-12-05T04:05:17.483Z,73.80
2018-12-05T04:06:18.567Z,73.70
2018-12-05T04:07:19.524Z,74.70
2018-12-05T04:08:20.496Z,73.70
2018-12-05T04:09:21.495Z,73.90
2018-12-05T04:10:22.473Z,73.90
2018-12-05T04:11:23.562Z,73.90
2018-12-05T04:12:24.534Z,73.70
2018-12-05T04:13:25.602Z,73.80
2018-12-05T04:14:26.556Z,74.00
2018-12-05T04:15:27.515Z,75.00
2018-12-05T04:16:28.601Z,74.40
2018-12-05T04:17:29.788Z,74.40
2018-12-05T04:18:30.826Z,74.30
2018-12-05T04:19:31.876Z,74.10
2018-12-05T04:20:32.834Z,74.10
2018-12-05T04:21:33.801Z,74.00
2018-12-05T04:22:34.764Z,73.90
2018-12-05T04:23:35.829Z,74.10
2018-12-05T04:24:37.021Z,74.20
2018-12-05T04:25:38.012Z,74.10
2018-12-05T04:26:39.185Z,74.70
2018-12-05T04:27:40.268Z,74.00
2018-12-05T04:28:41.324Z,74.10
2018-12-05T04:29:42.277Z,74.10
2018-12-05T04:30:43.246Z,74.10
2018-12-05T04:31:44.404Z,74.00
2018-12-05T04:32:52.355Z,74.10
2018-12-05T04:33:53.296Z,73.70
2018-12-05T04:34:54.261Z,73.70
2018-12-05T04:35:55.428Z,73.60
2018-12-05T04:36:56.395Z,73.40
2018-12-05T04:37:57.781Z,73.40
2018-12-05T04:38:58.734Z,73.30
2018-12-05T04:39:59.896Z,73.50
2018-12-05T04:41:00.847Z,73.70
2018-12-05T04:42:01.807Z,73.70
2018-12-05T04:43:03.072Z,73.70
2018-12-05T04:44:04.249Z,73.70
2018-12-05T04:45:05.424Z,73.60
2018-12-05T04:46:06.496Z,73.40
2018-12-05T04:47:07.565Z,73.40
2018-12-05T04:48:08.522Z,73.50
2018-12-05T04:49:09.478Z,74.20
2018-12-05T04:50:10.440Z,73.60
2018-12-05T04:51:11.488Z,73.40
2018-12-05T04:52:12.552Z,73.50
2018-12-05T04:53:13.596Z,73.40
2018-12-05T04:54:14.546Z,73.50
2018-12-05T04:55:15.700Z,73.50
2018-12-05T04:56:16.660Z,73.70
2018-12-05T04:57:17.715Z,73.70
2018-12-05T04:58:18.676Z,74.00
2018-12-05T04:59:19.627Z,73.80
2018-12-05T05:00:20.716Z,73.70
2018-12-05T05:01:21.884Z,73.60
2018-12-05T05:02:22.851Z,73.80
2018-12-05T05:03:24.034Z,73.80
2018-12-05T05:04:24.996Z,73.70
2018-12-05T05:05:25.964Z,73.70
2018-12-05T05:06:26.947Z,73.50
2018-12-05T05:07:28.031Z,73.60
2018-12-05T05:08:28.973Z,73.50
2018-12-05T05:09:29.914Z,73.30
2018-12-05T05:10:30.981Z,73.30
2018-12-05T05:11:31.927Z,73.30
2018-12-05T05:12:32.888Z,73.40
2018-12-05T05:13:33.916Z,73.30
2018-12-05T05:14:34.868Z,73.40
2018-12-05T05:15:35.829Z,73.60
2018-12-05T05:16:36.897Z,73.60
2018-12-05T05:17:37.876Z,73.60
2018-12-05T05:18:38.983Z,73.50
2018-12-05T05:19:40.137Z,73.70
2018-12-05T05:20:41.198Z,73.60
2018-12-05T05:21:42.167Z,73.70
2018-12-05T05:22:43.128Z,73.40
2018-12-05T05:23:44.085Z,73.20
2018-12-05T05:24:45.045Z,73.30
2018-12-05T05:25:46.104Z,73.60
2018-12-05T05:26:54.403Z,73.30
2018-12-05T05:27:55.455Z,73.20
2018-12-05T05:28:56.432Z,73.00
2018-12-05T05:29:57.403Z,73.00
2018-12-05T05:30:58.408Z,72.90
2018-12-05T05:31:59.621Z,72.90
2018-12-05T05:33:01.599Z,73.30
2018-12-05T05:34:02.803Z,73.30
2018-12-05T05:35:03.971Z,73.20
2018-12-05T05:36:05.043Z,73.30
2018-12-05T05:37:06.117Z,73.30
2018-12-05T05:38:07.076Z,73.00
2018-12-05T05:39:08.072Z,73.80
2018-12-05T05:40:09.013Z,72.70
2018-12-05T05:41:10.065Z,72.70
2018-12-05T05:42:11.015Z,72.50
2018-12-05T05:43:12.071Z,72.60
2018-12-05T05:44:13.116Z,73.50
2018-12-05T05:45:14.084Z,72.90
2018-12-05T05:46:15.052Z,72.70
2018-12-05T05:47:16.117Z,72.70
2018-12-05T05:48:17.176Z,72.20
2018-12-05T05:49:18.127Z,72.90
2018-12-05T05:50:20.609Z,72.50
2018-12-05T05:51:21.883Z,72.70
2018-12-05T05:52:22.847Z,72.70
2018-12-05T05:53:23.827Z,72.90
2018-12-05T05:54:24.800Z,72.70
2018-12-05T05:55:25.873Z,72.50
2018-12-05T05:56:26.949Z,72.50
2018-12-05T05:57:34.842Z,72.80
2018-12-05T05:58:35.907Z,72.80
2018-12-05T05:59:36.853Z,73.30
2018-12-05T06:00:37.815Z,74.30
2018-12-05T06:01:38.783Z,74.10
2018-12-05T06:02:39.763Z,73.70
2018-12-05T06:03:40.827Z,73.80
2018-12-05T06:04:41.800Z,74.00
2018-12-05T06:05:42.984Z,74.10
2018-12-05T06:06:43.937Z,73.80
2018-12-05T06:07:44.935Z,73.90
2018-12-05T06:08:45.884Z,73.10
2018-12-05T06:09:46.963Z,72.90
2018-12-05T06:10:48.149Z,73.10
2018-12-05T06:11:49.113Z,72.90
2018-12-05T06:12:50.076Z,73.00
2018-12-05T06:13:51.349Z,73.10
2018-12-05T06:14:52.327Z,73.00
2018-12-05T06:15:53.377Z,73.20
2018-12-05T06:16:54.428Z,73.20
2018-12-05T06:17:55.380Z,73.30
2018-12-05T06:18:56.329Z,73.70
2018-12-05T06:19:57.279Z,73.20
2018-12-05T06:20:58.245Z,73.40
2018-12-05T06:21:59.244Z,73.40
2018-12-05T06:23:00.219Z,73.20
2018-12-05T06:24:01.180Z,73.20
2018-12-05T06:25:03.735Z,73.30
2018-12-05T06:26:04.942Z,73.20
2018-12-05T06:27:06.113Z,73.00
2018-12-05T06:28:07.071Z,73.00
2018-12-05T06:29:08.160Z,73.00
2018-12-05T06:30:09.399Z,72.80
2018-12-05T06:31:10.467Z,72.90
2018-12-05T06:32:11.532Z,72.90
2018-12-05T06:33:12.495Z,72.90
2018-12-05T06:34:13.456Z,73.00
2018-12-05T06:35:14.408Z,73.10
2018-12-05T06:36:15.364Z,73.10
2018-12-05T06:37:16.308Z,73.00
2018-12-05T06:38:17.254Z,73.00
2018-12-05T06:39:18.208Z,73.10
2018-12-05T06:40:19.244Z,73.00
2018-12-05T06:41:20.198Z,73.10
2018-12-05T06:42:21.164Z,72.90
2018-12-05T06:43:22.123Z,72.80
2018-12-05T06:44:23.176Z,72.80
2018-12-05T06:45:24.292Z,72.80
2018-12-05T06:46:25.255Z,72.90
2018-12-05T06:47:27.897Z,73.00
2018-12-05T06:48:29.187Z,73.50
2018-12-05T06:49:30.155Z,73.20
2018-12-05T06:50:31.213Z,73.00
2018-12-05T06:51:32.182Z,72.70
2018-12-05T06:52:33.144Z,72.70
2018-12-05T06:53:35.658Z,72.70
2018-12-05T06:54:36.791Z,72.60
2018-12-05T06:55:39.288Z,72.50
2018-12-05T06:56:40.505Z,72.70
2018-12-05T06:57:41.464Z,72.50
2018-12-05T06:58:42.483Z,72.30
2018-12-05T06:59:43.488Z,72.80
2018-12-05T07:00:44.533Z,72.50
2018-12-05T07:01:45.588Z,72.90
2018-12-05T07:02:46.562Z,72.90
2018-12-05T07:03:47.559Z,73.00
2018-12-05T07:04:48.521Z,73.00
2018-12-05T07:05:49.487Z,73.20
2018-12-05T07:06:50.451Z,73.00
2018-12-05T07:07:51.410Z,72.90
2018-12-05T07:08:59.298Z,72.90
2018-12-05T07:10:00.408Z,73.00
2018-12-05T07:11:01.376Z,72.50
2018-12-05T07:12:02.588Z,72.60
2018-12-05T07:13:04.956Z,72.90
2018-12-05T07:14:06.015Z,72.90
2018-12-05T07:15:07.063Z,72.40
2018-12-05T07:16:08.230Z,72.20
2018-12-05T07:17:09.182Z,71.70
2018-12-05T07:18:10.149Z,71.70
2018-12-05T07:19:11.105Z,71.70
2018-12-05T07:20:12.174Z,71.70
2018-12-05T07:21:13.224Z,72.00
2018-12-05T07:22:14.203Z,72.20
2018-12-05T07:23:15.173Z,72.20
2018-12-05T07:24:16.121Z,72.20
2018-12-05T07:25:17.164Z,72.00
2018-12-05T07:26:18.215Z,72.10
2018-12-05T07:27:19.212Z,72.40
2018-12-05T07:28:20.172Z,72.40
2018-12-05T07:29:21.115Z,72.10
2018-12-05T07:30:29.325Z,72.20
2018-12-05T07:31:25.432Z,72.20
2018-12-05T07:32:26.436Z,72.20
2018-12-05T07:33:27.432Z,72.10
2018-12-05T07:34:28.383Z,72.30
2018-12-05T07:35:29.323Z,72.50
2018-12-05T07:36:30.296Z,72.30
2018-12-05T07:37:31.249Z,72.50
2018-12-05T07:38:32.231Z,72.90
2018-12-05T07:39:33.296Z,72.50
2018-12-05T07:40:34.393Z,71.90
2018-12-05T07:41:35.361Z,71.70
2018-12-05T07:42:36.326Z,72.30
2018-12-05T07:43:37.319Z,72.60
2018-12-05T07:44:38.257Z,72.40
2018-12-05T07:45:46.087Z,72.10
2018-12-05T07:46:47.139Z,71.80
2018-12-05T07:47:48.109Z,71.80
2018-12-05T07:48:49.079Z,71.80
2018-12-05T07:49:50.032Z,71.90
2018-12-05T07:50:51.012Z,71.90
2018-12-05T07:51:52.078Z,71.70
2018-12-05T07:52:53.019Z,71.50
2018-12-05T07:53:54.182Z,71.60
2018-12-05T07:54:55.123Z,71.90
2018-12-05T07:55:56.088Z,72.00
2018-12-05T07:56:57.170Z,72.00
2018-12-05T07:57:58.124Z,72.00
2018-12-05T07:58:59.083Z,72.10
2018-12-05T08:00:00.031Z,72.00
2018-12-05T08:01:00.992Z,72.00
2018-12-05T08:02:02.069Z,72.00
2018-12-05T08:03:09.931Z,72.00
2018-12-05T08:04:10.896Z,72.00
2018-12-05T08:05:12.131Z,72.00
2018-12-05T08:06:13.096Z,72.00
2018-12-05T08:07:14.151Z,72.00
2018-12-05T08:08:15.301Z,72.00
2018-12-05T08:09:23.227Z,72.10
2018-12-05T08:10:24.287Z,72.00
2018-12-05T08:11:25.260Z,71.90
2018-12-05T08:12:26.200Z,71.80
2018-12-05T08:13:27.287Z,72.00
2018-12-05T08:14:28.320Z,72.00
2018-12-05T08:15:29.478Z,72.00
2018-12-05T08:16:30.527Z,71.90
2018-12-05T08:17:31.585Z,72.00
2018-12-05T08:18:32.640Z,71.80
2018-12-05T08:19:33.608Z,71.60
2018-12-05T08:20:34.568Z,71.90
2018-12-05T08:21:35.942Z,71.90
2018-12-05T08:22:36.892Z,72.10
2018-12-05T08:23:37.922Z,72.20
2018-12-05T08:24:38.904Z,72.00
2018-12-05T08:25:40.885Z,72.90
2018-12-05T08:26:42.046Z,72.10
2018-12-05T08:27:43.114Z,72.10
2018-12-05T08:28:44.179Z,72.10
2018-12-05T08:29:45.180Z,72.10
2018-12-05T08:30:46.227Z,72.20
2018-12-05T08:31:47.398Z,72.10
2018-12-05T08:32:48.368Z,72.10
2018-12-05T08:33:49.451Z,72.50
2018-12-05T08:34:50.643Z,72.20
2018-12-05T08:35:51.609Z,73.00
2018-12-05T08:36:52.558Z,72.10
2018-12-05T08:37:53.528Z,72.20
2018-12-05T08:38:54.614Z,72.10
2018-12-05T08:39:55.570Z,71.80
2018-12-05T08:40:56.523Z,71.60
2018-12-05T08:41:57.477Z,71.50
2018-12-05T08:42:58.454Z,71.50
2018-12-05T08:43:59.418Z,71.60
2018-12-05T08:45:00.480Z,71.50
2018-12-05T08:46:01.546Z,71.30
2018-12-05T08:47:02.715Z,71.10
2018-12-05T08:48:03.868Z,70.10
2018-12-05T08:49:04.926Z,70.00
2018-12-05T08:50:06.075Z,70.10
2018-12-05T08:51:07.231Z,70.00
2018-12-05T08:52:08.282Z,69.90
2018-12-05T08:53:09.275Z,70.60
2018-12-05T08:54:10.372Z,69.80
2018-12-05T08:55:11.425Z,69.70
2018-12-05T08:56:12.483Z,69.50
2018-12-05T08:57:13.435Z,69.60
2018-12-05T08:58:14.415Z,69.80
2018-12-05T08:59:15.550Z,70.10
2018-12-05T09:00:16.611Z,69.30
2018-12-05T09:01:17.716Z,69.10
2018-12-05T09:02:18.682Z,68.70
2018-12-05T09:03:19.641Z,68.70
2018-12-05T09:04:20.607Z,68.70
2018-12-05T09:05:21.550Z,68.70
2018-12-05T09:06:22.608Z,68.50
2018-12-05T09:07:23.667Z,68.70
2018-12-05T09:08:24.627Z,69.10
2018-12-05T09:09:25.829Z,68.50
2018-12-05T09:10:26.910Z,68.80
2018-12-05T09:11:27.971Z,68.70
2018-12-05T09:12:28.920Z,68.80
2018-12-05T09:13:29.987Z,68.70
2018-12-05T09:14:30.943Z,68.50
2018-12-05T09:15:32.052Z,68.70
2018-12-05T09:16:33.019Z,68.70
2018-12-05T09:17:33.972Z,68.50
2018-12-05T09:18:34.974Z,68.50
2018-12-05T09:19:35.923Z,68.20
2018-12-05T09:20:36.859Z,68.30
2018-12-05T09:21:37.847Z,68.30
2018-12-05T09:22:41.521Z,68.00
2018-12-05T09:23:42.292Z,68.70
2018-12-05T09:24:43.248Z,67.90
2018-12-05T09:25:44.308Z,68.30
2018-12-05T09:26:45.255Z,68.10
2018-12-05T09:27:46.408Z,67.70
2018-12-05T09:28:47.523Z,68.30
2018-12-05T09:29:48.479Z,69.20
2018-12-05T09:30:49.427Z,68.60
2018-12-05T09:31:50.535Z,68.50
2018-12-05T09:32:51.488Z,68.70
2018-12-05T09:33:52.558Z,68.90
2018-12-05T09:34:53.614Z,68.50
2018-12-05T09:35:54.561Z,68.40
2018-12-05T09:36:55.529Z,68.40
2018-12-05T09:37:56.596Z,68.40
2018-12-05T09:38:57.555Z,68.10
2018-12-05T09:39:58.527Z,68.30
2018-12-05T09:40:59.572Z,68.50
2018-12-05T09:42:00.543Z,68.20
2018-12-05T09:43:01.486Z,67.80
2018-12-05T09:44:02.659Z,68.30
2018-12-05T09:45:07.224Z,68.20
2018-12-05T09:46:08.172Z,68.10
2018-12-05T09:47:15.703Z,68.20
2018-12-05T09:48:19.511Z,68.60
2018-12-05T09:49:20.564Z,68.70
2018-12-05T09:50:21.523Z,68.00
2018-12-05T09:51:22.689Z,67.70
2018-12-05T09:52:23.818Z,67.60
2018-12-05T09:53:24.765Z,67.20
2018-12-05T09:54:25.832Z,67.20
2018-12-05T09:55:26.931Z,67.40
2018-12-05T09:56:28.034Z,67.40
2018-12-05T09:57:28.983Z,67.40
2018-12-05T09:58:29.947Z,67.20
2018-12-05T09:59:30.896Z,67.30
2018-12-05T10:00:32.056Z,67.30
2018-12-05T10:01:33.007Z,67.30
2018-12-05T10:02:33.960Z,67.30
2018-12-05T10:03:35.026Z,67.20
2018-12-05T10:04:36.081Z,67.20
2018-12-05T10:05:37.155Z,67.40
2018-12-05T10:06:38.160Z,67.40
2018-12-05T10:07:39.221Z,66.90
2018-12-05T10:08:40.186Z,66.80
2018-12-05T10:09:41.145Z,66.90
2018-12-05T10:10:42.213Z,67.20
2018-12-05T10:11:43.175Z,66.90
2018-12-05T10:12:44.122Z,66.90
2018-12-05T10:13:45.068Z,66.90
2018-12-05T10:14:46.065Z,67.30
2018-12-05T10:15:47.204Z,66.90
2018-12-05T10:16:48.156Z,67.00
2018-12-05T10:17:49.109Z,67.40
2018-12-05T10:18:50.062Z,67.40
2018-12-05T10:19:51.051Z,67.40
2018-12-05T10:20:56.005Z,67.40
2018-12-05T10:21:55.102Z,67.30
2018-12-05T10:22:56.168Z,67.60
2018-12-05T10:23:57.128Z,67.40
2018-12-05T10:24:58.195Z,67.50
2018-12-05T10:25:59.371Z,67.70
2018-12-05T10:27:00.343Z,68.80
2018-12-05T10:28:01.315Z,67.60
2018-12-05T10:29:02.489Z,67.60
2018-12-05T10:30:05.668Z,67.50
2018-12-05T10:31:06.620Z,67.70
2018-12-05T10:32:07.579Z,67.70
2018-12-05T10:33:08.667Z,67.60
2018-12-05T10:34:09.749Z,67.60
2018-12-05T10:35:10.873Z,67.60
2018-12-05T10:36:11.947Z,68.00
2018-12-05T10:37:12.908Z,67.90
2018-12-05T10:38:13.905Z,67.80
2018-12-05T10:39:14.867Z,67.90
2018-12-05T10:40:15.948Z,68.20
2018-12-05T10:41:16.931Z,67.50
2018-12-05T10:42:18.046Z,67.70
2018-12-05T10:43:19.394Z,67.30
2018-12-05T10:44:20.402Z,67.60
2018-12-05T10:45:21.424Z,67.70
2018-12-05T10:46:22.441Z,67.50
2018-12-05T10:47:23.467Z,67.40
2018-12-05T10:48:24.432Z,67.20
2018-12-05T10:49:25.415Z,67.00
2018-12-05T10:50:26.387Z,67.00
2018-12-05T10:51:27.826Z,67.00
2018-12-05T10:52:28.784Z,66.60
2018-12-05T10:53:30.024Z,67.00
2018-12-05T10:54:30.998Z,66.80
2018-12-05T10:55:32.071Z,66.70
2018-12-05T10:56:39.943Z,66.90
2018-12-05T10:57:40.940Z,66.50
2018-12-05T10:58:41.920Z,66.60
2018-12-05T10:59:42.999Z,66.40
2018-12-05T11:00:50.102Z,66.50
2018-12-05T11:01:57.091Z,66.70
2018-12-05T11:03:04.319Z,66.70
2018-12-05T11:04:18.231Z,66.60
2018-12-05T11:05:23.503Z,66.60
2018-12-05T11:06:30.563Z,66.60
2018-12-05T11:07:37.751Z,66.90
2018-12-05T11:08:44.939Z,66.40
2018-12-05T11:09:51.977Z,66.90
2018-12-05T11:10:58.991Z,66.30
2018-12-05T11:12:06.449Z,66.40
2018-12-05T11:13:13.544Z,66.40
2018-12-05T11:14:20.875Z,66.20
2018-12-05T11:15:27.985Z,66.40
2018-12-05T11:16:35.227Z,66.40
2018-12-05T11:17:42.139Z,66.60
2018-12-05T11:18:49.628Z,66.60
2018-12-05T11:19:55.476Z,66.70
2018-12-05T11:21:02.508Z,66.60
2018-12-05T11:22:09.626Z,66.70
2018-12-05T11:23:13.613Z,66.50
2018-12-05T11:24:16.680Z,66.50
2018-12-05T11:25:17.702Z,66.30
2018-12-05T11:26:19.043Z,66.10
2018-12-05T11:27:20.086Z,66.20
2018-12-05T11:28:21.273Z,65.80
2018-12-05T11:29:22.268Z,65.70
2018-12-05T11:30:23.269Z,65.70
2018-12-05T11:31:24.599Z,65.80
2018-12-05T11:32:25.875Z,66.00
2018-12-05T11:33:26.877Z,65.90
2018-12-05T11:34:27.913Z,65.80
2018-12-05T11:35:28.914Z,65.90
2018-12-05T11:36:29.973Z,65.90
2018-12-05T11:37:31.090Z,65.70
2018-12-05T11:38:32.097Z,65.60
2018-12-05T11:39:33.087Z,65.60
2018-12-05T11:40:34.272Z,65.20
2018-12-05T11:41:35.473Z,64.70
2018-12-05T11:42:36.533Z,64.50
2018-12-05T11:43:37.624Z,64.60
2018-12-05T11:44:38.667Z,64.40
2018-12-05T11:45:40.068Z,65.00
2018-12-05T11:46:41.073Z,65.10
2018-12-05T11:47:42.172Z,65.20
2018-12-05T11:48:43.252Z,65.40
2018-12-05T11:49:44.333Z,65.50
2018-12-05T11:50:45.736Z,65.40
2018-12-05T11:51:46.773Z,64.90
2018-12-05T11:52:47.787Z,65.20
2018-12-05T11:53:48.802Z,65.00
2018-12-05T11:54:49.772Z,65.00
2018-12-05T11:55:50.774Z,65.20
2018-12-05T11:56:51.881Z,64.20
2018-12-05T11:57:52.849Z,64.00
2018-12-05T11:58:53.883Z,64.00
2018-12-05T11:59:55.260Z,64.00
2018-12-05T12:00:56.321Z,64.10
2018-12-05T12:01:57.343Z,64.70
2018-12-05T12:02:58.335Z,64.60
2018-12-05T12:03:59.319Z,64.60
2018-12-05T12:05:00.335Z,64.50
2018-12-05T12:06:01.324Z,64.60
2018-12-05T12:07:02.417Z,64.50
2018-12-05T12:08:03.448Z,64.90
2018-12-05T12:09:06.671Z,64.40
2018-12-05T12:10:07.995Z,64.30
2018-12-05T12:11:09.185Z,64.20
2018-12-05T12:12:12.332Z,64.40
2018-12-05T12:13:13.299Z,65.20
2018-12-05T12:14:14.269Z,65.10
2018-12-05T12:15:15.365Z,64.70
2018-12-05T12:16:16.634Z,64.70
2018-12-05T12:17:17.794Z,64.20
2018-12-05T12:18:19.017Z,64.20
2018-12-05T12:19:20.114Z,64.30
2018-12-05T12:20:21.080Z,64.30
2018-12-05T12:21:22.120Z,64.40
2018-12-05T12:22:23.205Z,64.40
2018-12-05T12:23:24.294Z,64.70
2018-12-05T12:24:25.259Z,64.90
2018-12-05T12:25:26.260Z,65.70
2018-12-05T12:26:33.204Z,64.50
2018-12-05T12:27:30.334Z,65.00
2018-12-05T12:28:31.416Z,64.30
2018-12-05T12:29:32.369Z,65.00
2018-12-05T12:30:33.466Z,65.00
2018-12-05T12:31:34.539Z,64.40
2018-12-05T12:32:35.725Z,64.30
2018-12-05T12:33:36.732Z,64.30
2018-12-05T12:34:37.696Z,63.30
2018-12-05T12:35:38.658Z,63.20
2018-12-05T12:36:39.655Z,62.50
2018-12-05T12:37:40.805Z,64.30
2018-12-05T12:38:41.764Z,63.60
2018-12-05T12:39:42.828Z,63.90
2018-12-05T12:40:43.892Z,63.60
2018-12-05T12:41:44.976Z,62.10
2018-12-05T12:42:45.931Z,62.40
2018-12-05T12:43:46.927Z,62.30
2018-12-05T12:44:47.981Z,63.00
2018-12-05T12:45:49.049Z,62.20
2018-12-05T12:46:50.000Z,62.60
2018-12-05T12:47:58.163Z,63.20
2018-12-05T12:48:59.132Z,62.70
2018-12-05T12:50:00.089Z,62.90
2018-12-05T12:51:01.039Z,63.40
2018-12-05T12:52:02.092Z,62.70
2018-12-05T12:53:03.436Z,62.60
2018-12-05T12:54:04.529Z,62.90
2018-12-05T12:55:05.750Z,64.10
2018-12-05T12:56:06.925Z,62.80
2018-12-05T12:57:07.884Z,62.60
2018-12-05T12:58:08.964Z,62.20
2018-12-05T12:59:10.064Z,62.70
2018-12-05T13:00:11.067Z,62.30
2018-12-05T13:01:19.040Z,62.80
2018-12-05T13:02:20.000Z,63.10
2018-12-05T13:03:21.067Z,62.90
2018-12-05T13:04:22.024Z,62.30
2018-12-05T13:05:23.200Z,62.50
2018-12-05T13:06:24.180Z,62.50
2018-12-05T13:07:25.246Z,63.00
2018-12-05T13:08:26.219Z,63.40
2018-12-05T13:09:27.176Z,62.90
2018-12-05T13:10:28.130Z,63.40